createdAt,value
2022-07-31T00:01:21.302Z,18.79
2022-07-31T00:03:47.974Z,18.77
2022-07-31T00:06:14.756Z,18.76
2022-07-31T00:08:41.282Z,18.74
2022-07-31T00:11:07.790Z,18.74
2022-07-31T00:13:57.363Z,18.74
2022-07-31T00:16:20.981Z,18.72
2022-07-31T00:18:47.555Z,18.72
2022-07-31T00:21:14.273Z,18.70
2022-07-31T00:23:43.566Z,18.70
2022-07-31T00:26:10.446Z,18.70
2022-07-31T00:28:37.465Z,18.70
2022-07-31T00:31:04.230Z,18.69
2022-07-31T00:33:32.013Z,18.67
2022-07-31T00:35:58.714Z,18.60
2022-07-31T00:38:26.975Z,18.57
2022-07-31T00:40:54.341Z,18.53
2022-07-31T00:43:21.223Z,18.50
2022-07-31T00:45:51.731Z,18.50
2022-07-31T00:48:25.965Z,18.47
2022-07-31T00:50:55.041Z,18.43
2022-07-31T00:53:21.574Z,18.36
2022-07-31T00:55:51.219Z,18.33
2022-07-31T00:58:19.925Z,18.30
2022-07-31T01:00:47.034Z,18.27
2022-07-31T01:03:14.589Z,18.31
2022-07-31T01:05:41.816Z,18.27
2022-07-31T01:08:08.656Z,18.19
2022-07-31T01:10:35.189Z,18.13
2022-07-31T01:13:08.344Z,18.06
2022-07-31T01:15:37.703Z,18.01
2022-07-31T01:18:06.244Z,17.95
2022-07-31T01:20:35.759Z,17.89
2022-07-31T01:23:31.069Z,17.84
2022-07-31T01:26:27.121Z,17.70
2022-07-31T01:29:06.187Z,17.61
2022-07-31T01:31:45.085Z,17.55
2022-07-31T01:34:23.546Z,17.50
2022-07-31T01:36:58.975Z,17.48
2022-07-31T01:39:26.980Z,17.38
2022-07-31T01:42:02.726Z,17.31
2022-07-31T01:44:31.536Z,17.30
2022-07-31T01:46:58.705Z,17.28
2022-07-31T01:49:28.131Z,17.27
2022-07-31T01:52:04.792Z,17.22
2022-07-31T01:54:33.928Z,17.18
2022-07-31T01:57:03.371Z,17.17
2022-07-31T01:59:32.869Z,17.14
2022-07-31T02:02:04.589Z,17.10
2022-07-31T02:04:33.840Z,17.11
2022-07-31T02:07:02.057Z,17.12
2022-07-31T02:09:29.165Z,17.11
2022-07-31T02:11:56.963Z,17.06
2022-07-31T02:14:24.958Z,17.04
2022-07-31T02:16:51.766Z,17.02
2022-07-31T02:19:20.656Z,16.96
2022-07-31T02:21:49.814Z,16.99
2022-07-31T02:24:17.650Z,16.92
2022-07-31T02:26:44.664Z,16.89
2022-07-31T02:29:19.557Z,16.87
2022-07-31T02:32:02.484Z,16.84
2022-07-31T02:34:32.389Z,16.86
2022-07-31T02:37:01.773Z,16.77
2022-07-31T02:39:31.065Z,16.71
2022-07-31T02:42:01.248Z,16.68
2022-07-31T02:44:31.677Z,16.71
2022-07-31T02:47:02.277Z,16.67
2022-07-31T02:49:30.150Z,16.67
2022-07-31T02:51:57.143Z,16.69
2022-07-31T02:54:26.184Z,16.73
2022-07-31T02:56:53.502Z,16.82
2022-07-31T02:59:21.990Z,16.82
2022-07-31T03:01:48.461Z,16.86
2022-07-31T03:04:14.940Z,16.89
2022-07-31T03:06:41.480Z,16.95
2022-07-31T03:09:07.905Z,16.97
2022-07-31T03:11:34.430Z,17.12
2022-07-31T03:14:03.452Z,17.29
2022-07-31T03:16:31.828Z,17.41
2022-07-31T03:18:58.361Z,17.47
2022-07-31T03:21:25.579Z,17.47
2022-07-31T03:23:52.324Z,17.55
2022-07-31T03:26:19.097Z,17.64
2022-07-31T03:28:45.809Z,17.90
2022-07-31T03:31:12.324Z,17.95
2022-07-31T03:33:38.748Z,18.13
2022-07-31T03:36:05.771Z,18.17
2022-07-31T03:38:39.104Z,18.32
2022-07-31T03:41:10.718Z,18.40
2022-07-31T03:43:44.024Z,18.47
2022-07-31T03:46:16.894Z,18.61
2022-07-31T03:48:43.649Z,18.66
2022-07-31T03:51:10.280Z,18.61
2022-07-31T03:53:37.903Z,18.65
2022-07-31T03:56:06.334Z,18.63
2022-07-31T03:58:33.215Z,18.63
2022-07-31T04:00:59.861Z,18.63
2022-07-31T04:03:30.987Z,18.65
2022-07-31T04:05:57.592Z,18.66
2022-07-31T04:08:24.035Z,18.72
2022-07-31T04:10:50.512Z,18.82
2022-07-31T04:13:16.951Z,18.96
2022-07-31T04:15:43.409Z,18.90
2022-07-31T04:18:09.823Z,18.89
2022-07-31T04:20:36.271Z,18.88
2022-07-31T04:23:04.021Z,19.02
2022-07-31T04:25:33.591Z,19.09
2022-07-31T04:28:01.321Z,19.09
2022-07-31T04:30:27.736Z,19.20
2022-07-31T04:32:54.111Z,19.29
2022-07-31T04:35:20.620Z,19.29
2022-07-31T04:37:48.555Z,19.34
2022-07-31T04:40:15.859Z,19.37
2022-07-31T04:42:42.348Z,19.48
2022-07-31T04:45:09.691Z,19.52
2022-07-31T04:47:37.027Z,19.52
2022-07-31T04:50:04.709Z,19.51
2022-07-31T04:52:31.171Z,19.53
2022-07-31T04:54:57.565Z,19.46
2022-07-31T04:57:24.120Z,19.00
2022-07-31T04:59:59.220Z,18.86
2022-07-31T05:02:27.245Z,18.82
2022-07-31T05:04:56.874Z,18.85
2022-07-31T05:07:25.845Z,18.79
2022-07-31T05:09:55.145Z,18.58
2022-07-31T05:12:21.552Z,18.39
2022-07-31T05:14:48.075Z,18.34
2022-07-31T05:17:14.612Z,18.27
2022-07-31T05:19:41.065Z,18.29
2022-07-31T05:22:07.675Z,18.25
2022-07-31T05:24:34.434Z,18.32
2022-07-31T05:27:04.627Z,18.39
2022-07-31T05:29:32.434Z,18.44
2022-07-31T05:32:00.800Z,18.56
2022-07-31T05:34:29.898Z,18.57
2022-07-31T05:36:57.317Z,18.47
2022-07-31T05:39:26.740Z,18.48
2022-07-31T05:41:53.161Z,18.52
2022-07-31T05:44:19.783Z,18.58
2022-07-31T05:46:46.497Z,18.58
2022-07-31T05:49:13.145Z,18.62
2022-07-31T05:51:43.349Z,18.54
2022-07-31T05:54:09.779Z,18.58
2022-07-31T05:56:36.223Z,18.63
2022-07-31T05:59:02.660Z,18.68
2022-07-31T06:01:29.179Z,18.68
2022-07-31T06:03:55.651Z,18.73
2022-07-31T06:06:22.118Z,18.85
2022-07-31T06:08:48.695Z,18.92
2022-07-31T06:11:15.137Z,19.05
2022-07-31T06:13:43.192Z,19.13
2022-07-31T06:16:14.375Z,19.26
2022-07-31T06:18:41.520Z,19.38
2022-07-31T06:21:07.941Z,19.58
2022-07-31T06:23:34.408Z,19.80
2022-07-31T06:26:00.909Z,19.98
2022-07-31T06:28:35.395Z,20.13
2022-07-31T06:31:18.365Z,20.32
2022-07-31T06:33:48.198Z,20.36
2022-07-31T06:36:15.798Z,20.53
2022-07-31T06:38:42.293Z,20.53
2022-07-31T06:41:08.799Z,20.73
2022-07-31T06:43:35.270Z,20.93
2022-07-31T06:46:01.762Z,21.12
2022-07-31T06:48:28.406Z,21.32
2022-07-31T06:51:14.486Z,21.48
2022-07-31T06:53:41.526Z,21.72
2022-07-31T06:56:07.939Z,21.94
2022-07-31T06:58:34.349Z,22.12
2022-07-31T07:01:00.810Z,22.26
2022-07-31T07:03:27.263Z,22.30
2022-07-31T07:05:53.715Z,22.34
2022-07-31T07:08:20.136Z,22.34
2022-07-31T07:10:46.584Z,22.32
2022-07-31T07:13:12.977Z,22.26
2022-07-31T07:15:39.412Z,22.20
2022-07-31T07:18:06.826Z,22.24
2022-07-31T07:20:33.530Z,22.27
2022-07-31T07:23:00.002Z,22.28
2022-07-31T07:25:26.505Z,22.46
2022-07-31T07:27:53.669Z,22.38
2022-07-31T07:30:20.171Z,22.50
2022-07-31T07:32:46.577Z,22.22
2022-07-31T07:35:13.014Z,22.16
2022-07-31T07:37:40.579Z,22.30
2022-07-31T07:40:08.804Z,22.31
2022-07-31T07:42:35.395Z,22.33
2022-07-31T07:45:02.239Z,22.44
2022-07-31T07:47:53.683Z,22.36
2022-07-31T07:50:19.692Z,22.23
2022-07-31T07:52:46.336Z,22.19
2022-07-31T07:55:12.820Z,22.21
2022-07-31T07:57:39.848Z,22.24
2022-07-31T08:00:08.904Z,22.24
2022-07-31T08:02:35.532Z,21.96
2022-07-31T08:05:02.144Z,21.83
2022-07-31T08:07:42.649Z,21.70
2022-07-31T08:10:10.640Z,21.67
2022-07-31T08:12:37.151Z,21.53
2022-07-31T08:15:04.714Z,21.56
2022-07-31T08:17:31.347Z,21.40
2022-07-31T08:19:57.782Z,21.44
2022-07-31T08:22:24.676Z,21.47
2022-07-31T08:24:51.164Z,21.50
2022-07-31T08:27:40.185Z,21.60
2022-07-31T08:30:08.127Z,21.66
2022-07-31T08:32:34.674Z,21.76
2022-07-31T08:35:01.079Z,21.79
2022-07-31T08:38:01.290Z,21.89
2022-07-31T08:40:14.044Z,22.03
2022-07-31T08:42:40.565Z,22.17
2022-07-31T08:45:08.257Z,22.18
2022-07-31T08:47:36.173Z,22.36
2022-07-31T08:50:05.524Z,22.53
2022-07-31T08:52:34.419Z,22.52
2022-07-31T08:55:06.061Z,22.46
2022-07-31T08:57:32.587Z,22.61
2022-07-31T08:59:58.983Z,22.93
2022-07-31T09:02:25.460Z,23.22
2022-07-31T09:04:52.889Z,23.32
2022-07-31T09:07:19.680Z,23.42
2022-07-31T09:09:51.567Z,23.18
2022-07-31T09:12:33.240Z,23.23
2022-07-31T09:15:00.849Z,23.21
2022-07-31T09:17:35.664Z,23.36
2022-07-31T09:20:02.908Z,23.78
2022-07-31T09:22:30.685Z,24.14
2022-07-31T09:25:12.349Z,24.38
2022-07-31T09:27:39.486Z,24.40
2022-07-31T09:30:07.439Z,24.47
2022-07-31T09:32:33.953Z,24.44
2022-07-31T09:35:11.928Z,24.56
2022-07-31T09:37:39.324Z,24.67
2022-07-31T09:40:07.978Z,24.73
2022-07-31T09:42:38.240Z,24.85
2022-07-31T09:45:17.153Z,25.03
2022-07-31T09:47:43.615Z,25.13
2022-07-31T09:50:10.143Z,25.11
2022-07-31T09:52:36.576Z,25.13
2022-07-31T09:55:15.006Z,25.07
2022-07-31T09:57:55.203Z,25.08
2022-07-31T10:00:22.539Z,25.03
2022-07-31T10:02:49.682Z,25.14
2022-07-31T10:05:18.015Z,25.33
2022-07-31T10:07:46.292Z,25.35
2022-07-31T10:10:13.681Z,25.67
2022-07-31T10:12:42.693Z,26.16
2022-07-31T10:15:12.584Z,26.28
2022-07-31T10:17:44.616Z,26.54
2022-07-31T10:20:17.278Z,26.77
2022-07-31T10:22:47.871Z,27.06
2022-07-31T10:25:21.088Z,26.85
2022-07-31T10:27:48.717Z,26.85
2022-07-31T10:30:16.267Z,27.00
2022-07-31T10:32:43.740Z,27.35
2022-07-31T10:35:10.622Z,27.57
2022-07-31T10:37:45.111Z,27.43
2022-07-31T10:40:31.597Z,27.58
2022-07-31T10:43:14.616Z,27.37
2022-07-31T10:45:49.515Z,27.40
2022-07-31T10:48:16.497Z,27.48
2022-07-31T10:50:43.384Z,27.62
2022-07-31T10:53:12.413Z,27.47
2022-07-31T10:55:39.411Z,27.22
2022-07-31T10:58:10.192Z,27.08
2022-07-31T11:00:37.097Z,26.70
2022-07-31T11:03:20.568Z,26.72
2022-07-31T11:06:15.120Z,26.79
2022-07-31T11:08:43.585Z,27.17
2022-07-31T11:11:10.590Z,27.41
2022-07-31T11:13:51.212Z,27.55
2022-07-31T11:16:18.647Z,27.58
2022-07-31T11:19:01.103Z,27.57
2022-07-31T11:21:38.911Z,27.83
2022-07-31T11:24:23.439Z,27.56
2022-07-31T11:26:52.227Z,27.13
2022-07-31T11:30:02.011Z,26.97
2022-07-31T11:32:26.602Z,27.23
2022-07-31T11:34:55.712Z,27.47
2022-07-31T11:37:24.854Z,27.32
2022-07-31T11:39:53.422Z,27.12
2022-07-31T11:42:26.316Z,27.16
2022-07-31T11:45:02.192Z,27.09
2022-07-31T11:48:11.504Z,26.98
2022-07-31T11:50:30.918Z,27.44
2022-07-31T11:53:06.756Z,27.60
2022-07-31T11:55:46.069Z,27.59
2022-07-31T11:58:13.500Z,27.41
2022-07-31T12:00:47.721Z,27.36
2022-07-31T12:03:15.683Z,27.79
2022-07-31T12:05:47.701Z,27.49
2022-07-31T12:08:15.073Z,26.83
2022-07-31T12:10:42.906Z,27.20
2022-07-31T12:13:17.579Z,27.46
2022-07-31T12:15:55.260Z,27.83
2022-07-31T12:18:21.834Z,27.96
2022-07-31T12:21:00.121Z,28.34
2022-07-31T12:23:38.623Z,28.21
2022-07-31T12:26:10.440Z,27.76
2022-07-31T12:28:36.915Z,28.29
2022-07-31T12:31:03.473Z,28.54
2022-07-31T12:33:40.328Z,27.60
2022-07-31T12:36:14.925Z,27.37
2022-07-31T12:38:48.026Z,27.62
2022-07-31T12:41:15.466Z,28.03
2022-07-31T12:43:51.761Z,27.58
2022-07-31T12:46:37.717Z,27.31
2022-07-31T12:49:05.119Z,27.15
2022-07-31T12:51:44.775Z,27.16
2022-07-31T12:54:15.202Z,27.59
2022-07-31T12:56:42.049Z,27.97
2022-07-31T12:59:09.001Z,27.80
2022-07-31T13:01:36.747Z,27.94
2022-07-31T13:04:05.549Z,27.73
2022-07-31T13:06:34.923Z,27.60
2022-07-31T13:09:01.338Z,28.06
2022-07-31T13:11:30.634Z,28.00
2022-07-31T13:14:13.735Z,28.18
2022-07-31T13:16:40.183Z,28.36
2022-07-31T13:19:07.879Z,28.83
2022-07-31T13:21:48.100Z,28.33
2022-07-31T13:24:20.143Z,27.81
2022-07-31T13:26:47.699Z,27.91
2022-07-31T13:29:14.959Z,27.89
2022-07-31T13:31:41.792Z,27.96
2022-07-31T13:34:08.267Z,27.93
2022-07-31T13:36:38.610Z,27.84
2022-07-31T13:39:05.514Z,27.79
2022-07-31T13:41:34.156Z,27.53
2022-07-31T13:44:01.623Z,28.30
2022-07-31T13:46:29.097Z,28.50
2022-07-31T13:48:57.458Z,28.78
2022-07-31T13:51:28.666Z,28.31
2022-07-31T13:53:55.688Z,28.34
2022-07-31T13:56:38.743Z,28.48
2022-07-31T13:59:08.867Z,28.31
2022-07-31T14:02:04.781Z,28.46
2022-07-31T14:04:23.945Z,28.55
2022-07-31T14:06:50.638Z,28.80
2022-07-31T14:09:18.312Z,29.16
2022-07-31T14:11:44.759Z,29.64
2022-07-31T14:14:12.420Z,29.78
2022-07-31T14:16:41.827Z,29.90
2022-07-31T14:19:08.522Z,30.10
2022-07-31T14:21:35.124Z,30.04
2022-07-31T14:24:01.588Z,29.99
2022-07-31T14:26:28.065Z,29.72
2022-07-31T14:28:54.598Z,29.62
2022-07-31T14:31:21.283Z,30.10
2022-07-31T14:33:47.861Z,30.02
2022-07-31T14:36:14.516Z,29.58
2022-07-31T14:38:40.948Z,29.52
2022-07-31T14:41:07.351Z,29.38
2022-07-31T14:43:33.915Z,29.32
2022-07-31T14:46:00.395Z,29.29
2022-07-31T14:48:27.306Z,29.07
2022-07-31T14:50:53.903Z,28.95
2022-07-31T14:53:20.299Z,29.07
2022-07-31T14:55:46.721Z,29.49
2022-07-31T14:58:13.248Z,29.35
2022-07-31T15:00:39.705Z,29.15
2022-07-31T15:03:07.006Z,29.29
2022-07-31T15:06:50.797Z,29.28
2022-07-31T15:08:19.957Z,29.32
2022-07-31T15:10:46.539Z,29.65
2022-07-31T15:13:13.219Z,29.80
2022-07-31T15:15:39.732Z,29.69
2022-07-31T15:18:06.334Z,29.10
2022-07-31T15:20:35.266Z,28.75
2022-07-31T15:23:02.448Z,28.53
2022-07-31T15:25:29.589Z,28.36
2022-07-31T15:27:56.140Z,27.87
2022-07-31T15:30:23.070Z,27.56
2022-07-31T15:32:52.560Z,27.65
2022-07-31T15:35:19.240Z,28.03
2022-07-31T15:37:46.060Z,28.14
2022-07-31T15:40:14.831Z,28.15
2022-07-31T15:42:43.740Z,28.21
2022-07-31T15:45:15.631Z,28.06
2022-07-31T15:47:43.337Z,27.52
2022-07-31T15:50:12.744Z,27.48
2022-07-31T15:52:39.763Z,27.83
2022-07-31T15:55:07.257Z,28.25
2022-07-31T15:57:33.799Z,28.44
2022-07-31T16:00:00.632Z,28.64
2022-07-31T16:02:27.201Z,28.65
2022-07-31T16:04:55.594Z,28.31
2022-07-31T16:08:30.115Z,27.88
2022-07-31T16:10:17.482Z,27.99
2022-07-31T16:12:46.163Z,27.72
2022-07-31T16:15:13.273Z,27.67
2022-07-31T16:17:40.251Z,27.50
2022-07-31T16:20:10.608Z,27.44
2022-07-31T16:22:38.364Z,27.52
2022-07-31T16:25:06.950Z,27.75
2022-07-31T16:27:33.430Z,27.53
2022-07-31T16:30:02.049Z,27.47
2022-07-31T16:32:29.018Z,27.54
2022-07-31T16:35:00.163Z,27.50
2022-07-31T16:37:51.558Z,27.35
2022-07-31T16:40:29.201Z,27.20
2022-07-31T16:43:48.648Z,26.82
2022-07-31T16:45:49.118Z,26.75
2022-07-31T16:48:16.305Z,26.62
2022-07-31T16:50:42.689Z,26.56
2022-07-31T16:53:09.115Z,26.55
2022-07-31T16:55:46.183Z,26.57
2022-07-31T16:58:26.928Z,26.65
2022-07-31T17:00:53.429Z,26.84
2022-07-31T17:03:59.110Z,26.93
2022-07-31T17:06:10.214Z,26.98
2022-07-31T17:08:38.010Z,26.86
2022-07-31T17:11:04.752Z,26.75
2022-07-31T17:13:31.261Z,26.44
2022-07-31T17:15:57.684Z,26.35
2022-07-31T17:18:25.282Z,26.39
2022-07-31T17:20:53.347Z,26.18
2022-07-31T17:23:43.122Z,26.31
2022-07-31T17:26:10.147Z,26.12
2022-07-31T17:28:47.391Z,26.17
2022-07-31T17:31:13.815Z,26.09
2022-07-31T17:33:59.715Z,26.21
2022-07-31T17:36:27.124Z,26.11
2022-07-31T17:38:53.522Z,25.96
2022-07-31T17:41:24.882Z,25.99
2022-07-31T17:43:54.803Z,25.99
2022-07-31T17:46:34.524Z,25.81
2022-07-31T17:49:04.188Z,25.81
2022-07-31T17:51:30.875Z,25.74
2022-07-31T17:53:59.271Z,25.80
2022-07-31T17:56:26.724Z,25.79
2022-07-31T17:58:53.406Z,25.82
2022-07-31T18:01:19.837Z,25.68
2022-07-31T18:03:46.375Z,25.67
2022-07-31T18:06:12.820Z,25.60
2022-07-31T18:08:39.214Z,25.55
2022-07-31T18:11:06.483Z,25.56
2022-07-31T18:13:48.316Z,25.47
2022-07-31T18:16:18.672Z,25.37
2022-07-31T18:18:45.813Z,25.37
2022-07-31T18:21:12.357Z,25.30
2022-07-31T18:23:43.516Z,25.27
2022-07-31T18:26:13.854Z,25.24
2022-07-31T18:28:40.498Z,25.23
2022-07-31T18:31:30.750Z,25.15
2022-07-31T18:33:53.435Z,25.16
2022-07-31T18:36:21.098Z,25.12
2022-07-31T18:38:52.001Z,25.04
2022-07-31T18:41:18.895Z,24.97
2022-07-31T18:43:45.466Z,24.94
2022-07-31T18:46:12.115Z,24.90
2022-07-31T18:48:39.030Z,24.79
2022-07-31T18:51:05.746Z,24.72
2022-07-31T18:53:33.438Z,24.70
2022-07-31T18:56:00.319Z,24.53
2022-07-31T18:58:26.818Z,24.46
2022-07-31T19:00:55.153Z,24.41
2022-07-31T19:03:23.221Z,24.41
2022-07-31T19:05:50.811Z,24.26
2022-07-31T19:08:17.238Z,24.23
2022-07-31T19:10:43.701Z,24.19
2022-07-31T19:13:17.381Z,24.31
2022-07-31T19:15:47.459Z,24.15
2022-07-31T19:18:15.148Z,24.17
2022-07-31T19:21:00.074Z,24.04
2022-07-31T19:23:28.859Z,23.93
2022-07-31T19:26:04.043Z,23.93
2022-07-31T19:28:34.893Z,23.86
2022-07-31T19:31:01.501Z,23.88
2022-07-31T19:33:28.023Z,23.88
2022-07-31T19:36:00.973Z,23.88
2022-07-31T19:38:32.457Z,23.77
2022-07-31T19:40:59.485Z,23.78
2022-07-31T19:43:26.035Z,23.73
2022-07-31T19:46:00.623Z,23.75
2022-07-31T19:48:39.598Z,23.72
2022-07-31T19:51:06.128Z,23.71
2022-07-31T19:53:32.585Z,23.66
2022-07-31T19:56:01.158Z,23.68
2022-07-31T19:58:27.598Z,23.67
2022-07-31T20:00:54.025Z,23.61
2022-07-31T20:03:20.585Z,23.58
2022-07-31T20:05:47.049Z,23.62
2022-07-31T20:08:13.493Z,23.52
2022-07-31T20:10:39.956Z,23.58
2022-07-31T20:13:06.384Z,23.55
2022-07-31T20:15:51.578Z,23.51
2022-07-31T20:18:27.520Z,23.51
2022-07-31T20:21:14.975Z,23.52
2022-07-31T20:23:41.773Z,23.43
2022-07-31T20:26:11.980Z,23.39
2022-07-31T20:28:40.252Z,23.39
2022-07-31T20:31:16.185Z,23.32
2022-07-31T20:33:57.384Z,23.33
2022-07-31T20:36:26.176Z,23.33
2022-07-31T20:38:52.898Z,23.24
2022-07-31T20:41:19.978Z,23.24
2022-07-31T20:43:46.512Z,23.21
2022-07-31T20:46:16.643Z,23.12
2022-07-31T20:48:45.296Z,23.05
2022-07-31T20:51:19.190Z,22.95
2022-07-31T20:53:47.285Z,22.92
2022-07-31T20:56:14.164Z,22.94
2022-07-31T20:58:41.373Z,22.81
2022-07-31T21:01:08.135Z,22.80
2022-07-31T21:03:34.994Z,22.74
2022-07-31T21:06:01.861Z,22.59
2022-07-31T21:08:28.444Z,22.57
2022-07-31T21:10:54.984Z,22.50
2022-07-31T21:13:21.799Z,22.45
2022-07-31T21:15:48.529Z,22.36
2022-07-31T21:18:17.747Z,22.31
2022-07-31T21:20:52.852Z,22.31
2022-07-31T21:23:23.033Z,22.22
2022-07-31T21:25:54.009Z,22.19
2022-07-31T21:28:21.927Z,22.16
2022-07-31T21:30:48.863Z,22.14
2022-07-31T21:33:16.286Z,22.21
2022-07-31T21:35:43.079Z,22.16
2022-07-31T21:38:15.151Z,22.08
2022-07-31T21:40:42.458Z,22.01
2022-07-31T21:43:09.511Z,22.00
2022-07-31T21:45:50.964Z,22.05
2022-07-31T21:48:24.676Z,21.91
2022-07-31T21:50:51.634Z,21.95
2022-07-31T21:53:18.097Z,21.92
2022-07-31T21:55:44.864Z,21.94
2022-07-31T21:58:11.661Z,21.87
2022-07-31T22:00:39.406Z,21.85
2022-07-31T22:03:06.400Z,21.79
2022-07-31T22:05:52.913Z,21.81
2022-07-31T22:08:20.360Z,21.83
2022-07-31T22:10:49.253Z,21.84
2022-07-31T22:13:15.765Z,21.81
2022-07-31T22:15:55.386Z,21.77
2022-07-31T22:18:33.014Z,21.75
2022-07-31T22:21:01.447Z,21.80
2022-07-31T22:23:28.503Z,21.72
2022-07-31T22:25:55.493Z,21.72
2022-07-31T22:28:23.852Z,21.72
2022-07-31T22:30:51.177Z,21.70
2022-07-31T22:33:18.510Z,21.60
2022-07-31T22:35:45.394Z,21.65
2022-07-31T22:38:27.032Z,21.58
2022-07-31T22:40:55.022Z,21.57
2022-07-31T22:44:11.090Z,21.55
2022-07-31T22:46:11.786Z,21.59
2022-07-31T22:48:40.368Z,21.55
2022-07-31T22:51:07.131Z,21.46
2022-07-31T22:53:35.134Z,21.48
2022-07-31T22:56:01.978Z,21.51
2022-07-31T22:58:28.701Z,21.48
2022-07-31T23:00:55.365Z,21.42
2022-07-31T23:03:21.960Z,21.39
2022-07-31T23:06:03.022Z,21.39
2022-07-31T23:08:35.177Z,21.34
2022-07-31T23:11:01.625Z,21.27
2022-07-31T23:13:28.193Z,21.27
2022-07-31T23:15:54.657Z,21.23
2022-07-31T23:18:21.365Z,21.28
2022-07-31T23:20:47.912Z,21.26
2022-07-31T23:23:14.585Z,21.24
2022-07-31T23:25:41.052Z,21.25
2022-07-31T23:28:07.654Z,21.26
2022-07-31T23:30:34.236Z,21.24
2022-07-31T23:33:00.772Z,21.20
2022-07-31T23:35:27.273Z,21.17
2022-07-31T23:37:53.927Z,21.26
2022-07-31T23:40:20.435Z,21.24
2022-07-31T23:42:48.656Z,21.12
2022-07-31T23:45:15.322Z,21.12
2022-07-31T23:47:45.762Z,21.18
2022-07-31T23:50:13.183Z,21.16
2022-07-31T23:52:41.544Z,21.15
2022-07-31T23:55:08.538Z,21.12
2022-07-31T23:57:36.287Z,21.02
